createdAt,value
2018-11-14T00:04:32.361Z,45.1
2018-11-14T00:09:31.034Z,45.1
2018-11-14T00:14:29.585Z,45.1
2018-11-14T00:19:28.331Z,45.1
2018-11-14T00:24:26.956Z,45
2018-11-14T00:29:25.647Z,45
2018-11-14T00:34:24.242Z,45
2018-11-14T00:39:22.604Z,45
2018-11-14T00:44:20.828Z,45
2018-11-14T00:49:19.513Z,45
2018-11-14T00:54:18.037Z,45
2018-11-14T00:59:16.700Z,45
2018-11-14T01:04:15.223Z,45
2018-11-14T01:09:13.825Z,45
2018-11-14T01:14:12.231Z,45
2018-11-14T01:19:10.968Z,45
2018-11-14T01:24:09.568Z,45
2018-11-14T01:29:08.139Z,45
2018-11-14T01:34:06.641Z,45
2018-11-14T01:39:05.349Z,45
2018-11-14T01:44:04.053Z,45
2018-11-14T01:49:02.556Z,45
2018-11-14T01:54:01.181Z,45
2018-11-14T01:58:59.787Z,45
2018-11-14T02:03:58.042Z,45
2018-11-14T02:08:56.274Z,45
2018-11-14T02:13:54.960Z,45
2018-11-14T02:18:53.161Z,45
2018-11-14T02:23:51.784Z,45
2018-11-14T02:28:50.543Z,45
2018-11-14T02:33:48.734Z,45
2018-11-14T02:38:46.990Z,45
2018-11-14T02:43:45.798Z,45
2018-11-14T02:48:44.439Z,45
2018-11-14T02:53:43.167Z,45
2018-11-14T02:58:41.763Z,45
2018-11-14T03:03:40.510Z,45
2018-11-14T03:08:38.814Z,45
2018-11-14T03:13:37.634Z,45
2018-11-14T03:18:35.877Z,45
2018-11-14T03:23:34.154Z,45
2018-11-14T03:28:32.901Z,45
2018-11-14T03:33:31.579Z,45
2018-11-14T03:38:30.175Z,45
2018-11-14T03:43:28.845Z,45
2018-11-14T03:48:27.653Z,44.9
2018-11-14T03:53:26.355Z,45
2018-11-14T03:58:25.155Z,44.9
2018-11-14T04:03:23.680Z,44.9
2018-11-14T04:08:22.241Z,44.9
2018-11-14T04:13:20.694Z,44.9
2018-11-14T04:18:19.370Z,44.9
2018-11-14T04:23:17.724Z,44.9
2018-11-14T04:28:16.162Z,44.9
2018-11-14T04:33:14.988Z,44.9
2018-11-14T04:38:13.690Z,44.9
2018-11-14T04:43:12.358Z,44.9
2018-11-14T04:48:11.337Z,44.9
2018-11-14T04:53:10.082Z,44.9
2018-11-14T04:58:08.691Z,44.9
2018-11-14T05:03:07.287Z,44.9
2018-11-14T05:08:05.568Z,44.9
2018-11-14T05:13:03.855Z,44.9
2018-11-14T05:18:02.602Z,44.9
2018-11-14T05:23:01.144Z,44.9
2018-11-14T05:27:59.747Z,44.9
2018-11-14T05:32:57.978Z,44.9
2018-11-14T05:37:56.289Z,44.9
2018-11-14T05:42:54.887Z,44.9
2018-11-14T05:47:53.554Z,44.9
2018-11-14T05:52:52.136Z,44.9
2018-11-14T05:57:50.967Z,44.9
2018-11-14T06:02:49.739Z,44.9
2018-11-14T06:07:48.454Z,44.9
2018-11-14T06:12:47.074Z,44.9
2018-11-14T06:17:45.413Z,44.9
2018-11-14T06:22:44.223Z,45
2018-11-14T06:27:42.874Z,45
2018-11-14T06:32:41.440Z,45
2018-11-14T06:37:39.948Z,45
2018-11-14T06:42:38.579Z,45
2018-11-14T06:47:37.358Z,45
2018-11-14T06:52:35.901Z,45
2018-11-14T06:57:34.645Z,45
2018-11-14T07:02:38.759Z,45
2018-11-14T07:07:36.557Z,45
2018-11-14T07:12:34.820Z,45
2018-11-14T07:17:33.252Z,45.1
2018-11-14T07:22:31.900Z,45.1
2018-11-14T07:27:30.747Z,45.1
2018-11-14T07:32:28.856Z,45.1
2018-11-14T07:37:27.480Z,45.1
2018-11-14T07:42:25.987Z,45.1
2018-11-14T07:47:24.739Z,45.1
2018-11-14T07:52:23.423Z,45.1
2018-11-14T07:57:22.023Z,45.2
2018-11-14T08:02:20.777Z,45.2
2018-11-14T08:07:19.287Z,45.2
2018-11-14T08:12:17.482Z,45.2
2018-11-14T08:17:16.626Z,45.3
2018-11-14T08:22:15.450Z,45.3
2018-11-14T08:27:14.061Z,45.3
2018-11-14T08:32:12.030Z,45.3
2018-11-14T08:37:10.659Z,45.3
2018-11-14T08:42:09.394Z,45.4
2018-11-14T08:47:08.040Z,45.3
2018-11-14T08:52:06.275Z,45.4
2018-11-14T08:57:04.959Z,45.4
2018-11-14T09:02:03.285Z,45.4
2018-11-14T09:07:02.029Z,45.4
2018-11-14T09:12:00.848Z,45.4
2018-11-14T09:16:59.439Z,45.4
2018-11-14T09:21:57.924Z,45.4
2018-11-14T09:26:56.383Z,45.4
2018-11-14T09:31:55.206Z,45.4
2018-11-14T09:36:53.775Z,45.4
2018-11-14T09:41:51.601Z,45.4
2018-11-14T09:46:50.297Z,45.4
2018-11-14T09:51:50.700Z,45.4
2018-11-14T10:01:58.979Z,45.3
2018-11-14T10:06:56.911Z,45.3
2018-11-14T10:11:57.373Z,45.3
2018-11-14T10:16:55.886Z,45.4
2018-11-14T10:21:54.813Z,45.3
2018-11-14T10:26:53.604Z,45.4
2018-11-14T10:31:52.421Z,45.4
2018-11-14T10:36:51.103Z,45.4
2018-11-14T10:41:49.809Z,45.4
2018-11-14T10:46:48.667Z,45.4
2018-11-14T10:51:46.939Z,45.4
2018-11-14T10:56:45.854Z,45.4
2018-11-14T11:01:44.479Z,45.4
2018-11-14T11:06:43.072Z,45.4
2018-11-14T11:11:41.748Z,45.4
2018-11-14T11:16:40.546Z,45.5
2018-11-14T11:21:38.855Z,45.5
2018-11-14T11:26:37.368Z,45.5
2018-11-14T11:31:35.979Z,45.5
2018-11-14T11:36:34.032Z,45.5
2018-11-14T11:41:32.720Z,45.5
2018-11-14T11:46:31.351Z,45.5
2018-11-14T11:51:29.564Z,45.5
2018-11-14T11:56:28.398Z,45.4
2018-11-14T12:01:26.625Z,45.5
2018-11-14T12:06:24.964Z,45.5
2018-11-14T12:11:23.530Z,45.5
2018-11-14T12:16:22.369Z,45.4
2018-11-14T12:26:25.347Z,45.4
2018-11-14T12:31:23.967Z,45.4
2018-11-14T12:36:22.849Z,45.4
2018-11-14T12:41:21.676Z,45.4
2018-11-14T12:46:20.543Z,45.4
2018-11-14T12:51:18.883Z,45.4
2018-11-14T12:56:17.912Z,45.4
2018-11-14T13:01:16.567Z,45.4
2018-11-14T13:06:15.301Z,45.4
2018-11-14T13:11:13.365Z,45.4
2018-11-14T13:16:11.986Z,45.4
2018-11-14T13:21:10.357Z,45.4
2018-11-14T13:26:09.062Z,45.4
2018-11-14T13:31:07.307Z,45.4
2018-11-14T13:36:06.248Z,45.4
2018-11-14T13:41:04.886Z,45.4
2018-11-14T13:46:03.022Z,45.4
2018-11-14T13:51:02.526Z,45.4
2018-11-14T13:56:01.286Z,45.4
2018-11-14T14:00:59.389Z,45.4
2018-11-14T14:05:58.194Z,45.4
2018-11-14T14:10:56.882Z,45.4
2018-11-14T14:15:55.447Z,45.4
2018-11-14T14:20:53.952Z,45.4
2018-11-14T14:25:52.622Z,45.4
2018-11-14T14:30:51.520Z,45.4
2018-11-14T14:35:50.231Z,45.4
2018-11-14T14:40:48.314Z,45.4
2018-11-14T14:45:47.134Z,45.5
2018-11-14T14:50:45.761Z,45.5
2018-11-14T14:55:44.635Z,45.4
2018-11-14T15:00:43.301Z,45.5
2018-11-14T15:05:41.630Z,45.5
2018-11-14T15:10:40.285Z,45.5
2018-11-14T15:15:39.231Z,45.5
2018-11-14T15:20:37.977Z,45.6
2018-11-14T15:25:36.480Z,45.6
2018-11-14T15:30:34.949Z,45.6
2018-11-14T15:35:33.388Z,45.6
2018-11-14T15:40:31.774Z,45.6
2018-11-14T15:45:30.633Z,45.6
2018-11-14T15:50:28.930Z,45.6
2018-11-14T15:55:27.789Z,45.6
2018-11-14T16:00:26.136Z,45.7
2018-11-14T16:05:25.052Z,45.7
2018-11-14T16:10:23.541Z,45.7
2018-11-14T16:15:21.833Z,45.7
2018-11-14T16:20:20.628Z,45.7
2018-11-14T16:25:19.387Z,45.7
2018-11-14T16:30:18.293Z,45.6
2018-11-14T16:35:16.891Z,45.6
2018-11-14T16:40:14.887Z,45.6
2018-11-14T16:45:13.666Z,45.6
2018-11-14T16:50:11.850Z,45.6
2018-11-14T16:55:10.410Z,45.6
2018-11-14T17:00:09.324Z,45.5
2018-11-14T17:05:08.167Z,45.5
2018-11-14T17:10:06.785Z,45.5
2018-11-14T17:15:05.736Z,45.5
2018-11-14T17:20:04.067Z,45.5
2018-11-14T17:25:02.846Z,45.5
2018-11-14T17:30:01.166Z,45.5
2018-11-14T17:35:00.331Z,45.5
2018-11-14T17:39:59.198Z,45.4
2018-11-14T17:44:57.754Z,45.4
2018-11-14T17:49:56.169Z,45.4
2018-11-14T17:54:54.905Z,45.4
2018-11-14T17:59:53.090Z,45.4
2018-11-14T18:04:51.915Z,45.4
2018-11-14T18:09:50.186Z,45.4
2018-11-14T18:14:48.457Z,45.4
2018-11-14T18:19:47.346Z,45.4
2018-11-14T18:24:46.065Z,45.4
2018-11-14T18:29:44.544Z,45.4
2018-11-14T18:34:43.162Z,45.5
2018-11-14T18:39:42.045Z,45.5
2018-11-14T18:44:40.654Z,45.5
2018-11-14T18:49:39.461Z,45.5
2018-11-14T18:54:38.210Z,45.5
2018-11-14T18:59:37.145Z,45.5
2018-11-14T19:04:35.882Z,45.6
2018-11-14T19:09:33.597Z,45.6
2018-11-14T19:14:32.159Z,45.6
2018-11-14T19:19:30.930Z,45.5
2018-11-14T19:24:29.303Z,45.6
2018-11-14T19:29:28.077Z,45.6
2018-11-14T19:34:26.835Z,45.6
2018-11-14T19:39:25.278Z,45.6
2018-11-14T19:44:23.696Z,45.6
2018-11-14T19:49:22.989Z,45.6
2018-11-14T19:54:21.615Z,45.6
2018-11-14T19:59:19.843Z,45.6
2018-11-14T20:04:18.757Z,45.6
2018-11-14T20:09:17.491Z,45.6
2018-11-14T20:14:16.328Z,45.6
2018-11-14T20:19:15.198Z,45.6
2018-11-14T20:24:13.839Z,45.6
2018-11-14T20:29:11.586Z,45.6
2018-11-14T20:34:10.484Z,45.6
2018-11-14T20:39:09.166Z,45.6
2018-11-14T20:44:07.584Z,45.6
2018-11-14T20:49:06.476Z,45.6
2018-11-14T20:54:05.108Z,45.6
2018-11-14T20:59:04.009Z,45.6
2018-11-14T21:04:02.754Z,45.6
2018-11-14T21:09:01.141Z,45.6
2018-11-14T21:13:59.965Z,45.6
2018-11-14T21:18:58.596Z,45.6
2018-11-14T21:23:57.522Z,45.6
2018-11-14T21:28:56.264Z,45.6
2018-11-14T21:33:54.901Z,45.5
2018-11-14T21:38:53.289Z,45.5
2018-11-14T21:43:51.964Z,45.5
2018-11-14T21:48:50.800Z,45.5
2018-11-14T21:53:48.925Z,45.5
2018-11-14T21:58:47.175Z,45.5
2018-11-14T22:03:45.896Z,45.5
2018-11-14T22:08:44.342Z,45.5
2018-11-14T22:13:43.785Z,45.5
2018-11-14T22:18:41.953Z,45.5
2018-11-14T22:23:41.334Z,45.5
2018-11-14T22:28:40.028Z,45.5
2018-11-14T22:33:38.361Z,45.5
2018-11-14T22:38:36.835Z,45.5
2018-11-14T22:43:35.752Z,45.5
2018-11-14T22:48:34.086Z,45.5
2018-11-14T22:53:32.822Z,45.5
2018-11-14T22:58:31.539Z,45.5
2018-11-14T23:03:30.235Z,45.5
2018-11-14T23:08:28.910Z,45.5
2018-11-14T23:13:27.169Z,45.5
2018-11-14T23:18:26.028Z,45.5
2018-11-14T23:23:25.046Z,45.5
2018-11-14T23:28:23.645Z,45.5
2018-11-14T23:33:22.256Z,45.5
2018-11-14T23:38:20.473Z,45.5
2018-11-14T23:43:19.339Z,45.5
2018-11-14T23:48:18.044Z,45.5
2018-11-14T23:53:16.624Z,45.5
2018-11-14T23:58:15.375Z,45.4
